sensor_id;sensor_type;location;lat;lon;timestamp;temperature;humidity
75262;DHT22;63859;51.064;4.580;2024-01-30T00:02:25;8.90;99.90
75262;DHT22;63859;51.064;4.580;2024-01-30T00:07:17;8.90;99.90
75262;DHT22;63859;51.064;4.580;2024-01-30T00:09:43;8.90;99.90
75262;DHT22;63859;51.064;4.580;2024-01-30T00:12:08;8.90;99.90
75262;DHT22;63859;51.064;4.580;2024-01-30T00:14:34;8.90;99.90
75262;DHT22;63859;51.064;4.580;2024-01-30T00:17:00;8.90;99.90
75262;DHT22;63859;51.064;4.580;2024-01-30T00:19:25;8.90;99.90
75262;DHT22;63859;51.064;4.580;2024-01-30T00:21:51;8.90;99.90
75262;DHT22;63859;51.064;4.580;2024-01-30T00:29:09;9.00;99.90
75262;DHT22;63859;51.064;4.580;2024-01-30T00:31:35;9.00;99.90
75262;DHT22;63859;51.064;4.580;2024-01-30T00:34:01;9.00;99.90
75262;DHT22;63859;51.064;4.580;2024-01-30T00:36:26;9.00;99.90
75262;DHT22;63859;51.064;4.580;2024-01-30T00:38:55;9.00;99.90
75262;DHT22;63859;51.064;4.580;2024-01-30T00:41:20;9.00;99.90
75262;DHT22;63859;51.064;4.580;2024-01-30T00:43:46;9.00;99.90
75262;DHT22;63859;51.064;4.580;2024-01-30T00:48:38;9.00;99.90
75262;DHT22;63859;51.064;4.580;2024-01-30T00:51:03;9.00;99.90
75262;DHT22;63859;51.064;4.580;2024-01-30T00:53:29;9.00;99.90
75262;DHT22;63859;51.064;4.580;2024-01-30T00:55:55;9.00;99.90
75262;DHT22;63859;51.064;4.580;2024-01-30T00:58:20;9.10;99.90
75262;DHT22;63859;51.064;4.580;2024-01-30T01:05:39;9.00;99.90
75262;DHT22;63859;51.064;4.580;2024-01-30T01:08:05;9.10;99.90
75262;DHT22;63859;51.064;4.580;2024-01-30T01:10:31;9.10;99.90
75262;DHT22;63859;51.064;4.580;2024-01-30T01:12:56;9.00;99.90
75262;DHT22;63859;51.064;4.580;2024-01-30T01:17:48;9.00;99.90
75262;DHT22;63859;51.064;4.580;2024-01-30T01:27:33;9.00;99.90
75262;DHT22;63859;51.064;4.580;2024-01-30T01:30:00;9.00;99.90
75262;DHT22;63859;51.064;4.580;2024-01-30T01:32:25;9.00;99.90
75262;DHT22;63859;51.064;4.580;2024-01-30T01:34:51;9.00;99.90
75262;DHT22;63859;51.064;4.580;2024-01-30T01:37:17;9.00;99.90
75262;DHT22;63859;51.064;4.580;2024-01-30T01:39:43;9.00;99.90
75262;DHT22;63859;51.064;4.580;2024-01-30T01:42:09;9.00;99.90
75262;DHT22;63859;51.064;4.580;2024-01-30T01:44:34;9.00;99.90
75262;DHT22;63859;51.064;4.580;2024-01-30T01:51:55;9.00;99.90
75262;DHT22;63859;51.064;4.580;2024-01-30T01:56:48;8.90;99.90
75262;DHT22;63859;51.064;4.580;2024-01-30T01:59:15;8.90;99.90
75262;DHT22;63859;51.064;4.580;2024-01-30T02:06:34;9.00;99.90
75262;DHT22;63859;51.064;4.580;2024-01-30T02:09:00;8.90;99.90
75262;DHT22;63859;51.064;4.580;2024-01-30T02:11:26;9.00;99.90
75262;DHT22;63859;51.064;4.580;2024-01-30T02:13:53;9.00;99.90
75262;DHT22;63859;51.064;4.580;2024-01-30T02:16:19;9.00;99.90
75262;DHT22;63859;51.064;4.580;2024-01-30T02:23:40;9.00;99.90
75262;DHT22;63859;51.064;4.580;2024-01-30T02:26:06;8.90;99.90
75262;DHT22;63859;51.064;4.580;2024-01-30T02:28:32;8.90;99.90
75262;DHT22;63859;51.064;4.580;2024-01-30T02:30:58;8.90;99.90
75262;DHT22;63859;51.064;4.580;2024-01-30T02:35:49;8.90;99.90
75262;DHT22;63859;51.064;4.580;2024-01-30T02:38:16;8.90;99.90
75262;DHT22;63859;51.064;4.580;2024-01-30T02:40:42;8.90;99.90
75262;DHT22;63859;51.064;4.580;2024-01-30T02:45:33;8.80;99.90
75262;DHT22;63859;51.064;4.580;2024-01-30T02:52:51;8.80;99.90
75262;DHT22;63859;51.064;4.580;2024-01-30T02:57:43;8.80;99.90
75262;DHT22;63859;51.064;4.580;2024-01-30T03:00:10;8.80;99.90
75262;DHT22;63859;51.064;4.580;2024-01-30T03:05:02;8.70;99.90
75262;DHT22;63859;51.064;4.580;2024-01-30T03:07:29;8.70;99.90
75262;DHT22;63859;51.064;4.580;2024-01-30T03:14:47;8.70;99.90
75262;DHT22;63859;51.064;4.580;2024-01-30T03:17:13;8.70;99.90
75262;DHT22;63859;51.064;4.580;2024-01-30T03:19:39;8.70;99.90
75262;DHT22;63859;51.064;4.580;2024-01-30T03:22:04;8.80;99.90
75262;DHT22;63859;51.064;4.580;2024-01-30T03:24:30;8.80;99.90
75262;DHT22;63859;51.064;4.580;2024-01-30T03:26:56;8.80;99.90
75262;DHT22;63859;51.064;4.580;2024-01-30T03:29:21;8.80;99.90
75262;DHT22;63859;51.064;4.580;2024-01-30T03:34:13;8.80;99.90
75262;DHT22;63859;51.064;4.580;2024-01-30T03:36:39;8.80;99.90
75262;DHT22;63859;51.064;4.580;2024-01-30T03:39:04;8.80;99.90
75262;DHT22;63859;51.064;4.580;2024-01-30T03:46:23;8.80;99.90
75262;DHT22;63859;51.064;4.580;2024-01-30T03:51:15;8.80;99.90
75262;DHT22;63859;51.064;4.580;2024-01-30T03:53:42;8.90;99.90
75262;DHT22;63859;51.064;4.580;2024-01-30T03:56:08;8.80;99.90
75262;DHT22;63859;51.064;4.580;2024-01-30T04:01:00;8.80;99.90
75262;DHT22;63859;51.064;4.580;2024-01-30T04:08:18;8.80;99.90
75262;DHT22;63859;51.064;4.580;2024-01-30T04:10:44;8.90;99.90
75262;DHT22;63859;51.064;4.580;2024-01-30T04:13:10;8.90;99.90
75262;DHT22;63859;51.064;4.580;2024-01-30T04:15:36;8.90;99.90
75262;DHT22;63859;51.064;4.580;2024-01-30T04:18:01;8.90;99.90
75262;DHT22;63859;51.064;4.580;2024-01-30T04:25:19;8.80;99.90
75262;DHT22;63859;51.064;4.580;2024-01-30T04:30:11;8.90;99.90
75262;DHT22;63859;51.064;4.580;2024-01-30T04:32:37;8.80;99.90
75262;DHT22;63859;51.064;4.580;2024-01-30T04:35:03;8.80;99.90
75262;DHT22;63859;51.064;4.580;2024-01-30T04:39:55;8.90;99.90
75262;DHT22;63859;51.064;4.580;2024-01-30T04:47:12;8.90;99.90
75262;DHT22;63859;51.064;4.580;2024-01-30T04:49:39;8.90;99.90
75262;DHT22;63859;51.064;4.580;2024-01-30T04:52:08;9.00;99.90
75262;DHT22;63859;51.064;4.580;2024-01-30T05:04:20;9.00;99.90
75262;DHT22;63859;51.064;4.580;2024-01-30T05:06:46;9.00;99.90
75262;DHT22;63859;51.064;4.580;2024-01-30T05:09:12;9.00;99.90
75262;DHT22;63859;51.064;4.580;2024-01-30T05:11:41;9.00;99.90
75262;DHT22;63859;51.064;4.580;2024-01-30T05:14:07;9.00;99.90
75262;DHT22;63859;51.064;4.580;2024-01-30T05:19:00;9.10;99.90
75262;DHT22;63859;51.064;4.580;2024-01-30T05:21:26;9.10;99.90
75262;DHT22;63859;51.064;4.580;2024-01-30T05:26:17;9.00;99.90
75262;DHT22;63859;51.064;4.580;2024-01-30T05:36:06;9.10;99.90
75262;DHT22;63859;51.064;4.580;2024-01-30T05:38:32;9.20;99.90
75262;DHT22;63859;51.064;4.580;2024-01-30T05:45:51;9.20;99.90
75262;DHT22;63859;51.064;4.580;2024-01-30T05:48:17;9.20;99.90
75262;DHT22;63859;51.064;4.580;2024-01-30T05:50:43;9.30;99.90
75262;DHT22;63859;51.064;4.580;2024-01-30T05:53:08;9.20;99.90
75262;DHT22;63859;51.064;4.580;2024-01-30T05:55:34;9.20;99.90
75262;DHT22;63859;51.064;4.580;2024-01-30T05:58:00;9.20;99.90
75262;DHT22;63859;51.064;4.580;2024-01-30T06:00:26;9.20;99.90
75262;DHT22;63859;51.064;4.580;2024-01-30T06:07:44;9.30;99.90
75262;DHT22;63859;51.064;4.580;2024-01-30T06:10:11;9.30;99.90
75262;DHT22;63859;51.064;4.580;2024-01-30T06:12:37;9.30;99.90
75262;DHT22;63859;51.064;4.580;2024-01-30T06:15:03;9.30;99.90
75262;DHT22;63859;51.064;4.580;2024-01-30T06:22:21;9.40;99.90
75262;DHT22;63859;51.064;4.580;2024-01-30T06:24:47;9.40;99.90
75262;DHT22;63859;51.064;4.580;2024-01-30T06:29:43;9.40;99.90
75262;DHT22;63859;51.064;4.580;2024-01-30T06:37:01;9.40;99.90
75262;DHT22;63859;51.064;4.580;2024-01-30T06:41:53;9.40;99.90
75262;DHT22;63859;51.064;4.580;2024-01-30T06:46:45;9.40;99.90
75262;DHT22;63859;51.064;4.580;2024-01-30T06:49:11;9.40;99.90
75262;DHT22;63859;51.064;4.580;2024-01-30T06:54:03;9.40;99.90
75262;DHT22;63859;51.064;4.580;2024-01-30T06:56:28;9.40;99.90
75262;DHT22;63859;51.064;4.580;2024-01-30T06:58:54;9.50;99.90
75262;DHT22;63859;51.064;4.580;2024-01-30T07:01:20;9.50;99.90
75262;DHT22;63859;51.064;4.580;2024-01-30T07:03:46;9.50;99.90
75262;DHT22;63859;51.064;4.580;2024-01-30T07:06:12;9.50;99.90
75262;DHT22;63859;51.064;4.580;2024-01-30T07:08:37;9.60;99.90
75262;DHT22;63859;51.064;4.580;2024-01-30T07:11:06;9.60;99.90
75262;DHT22;63859;51.064;4.580;2024-01-30T07:13:33;9.60;99.90
75262;DHT22;63859;51.064;4.580;2024-01-30T07:18:25;9.60;99.90
75262;DHT22;63859;51.064;4.580;2024-01-30T07:23:18;9.70;99.90
75262;DHT22;63859;51.064;4.580;2024-01-30T07:25:44;9.80;99.90
75262;DHT22;63859;51.064;4.580;2024-01-30T07:28:10;9.80;99.90
75262;DHT22;63859;51.064;4.580;2024-01-30T07:30:37;9.90;99.90
75262;DHT22;63859;51.064;4.580;2024-01-30T07:33:03;10.00;99.90
75262;DHT22;63859;51.064;4.580;2024-01-30T07:37:55;10.10;99.90
75262;DHT22;63859;51.064;4.580;2024-01-30T07:42:49;10.20;99.90
75262;DHT22;63859;51.064;4.580;2024-01-30T07:47:41;10.30;99.90
75262;DHT22;63859;51.064;4.580;2024-01-30T07:50:08;10.30;99.90
75262;DHT22;63859;51.064;4.580;2024-01-30T07:57:25;10.40;99.90
75262;DHT22;63859;51.064;4.580;2024-01-30T07:59:51;10.50;99.90
75262;DHT22;63859;51.064;4.580;2024-01-30T08:04:43;10.60;99.90
75262;DHT22;63859;51.064;4.580;2024-01-30T08:09:34;-5.30;75.50
75262;DHT22;63859;51.064;4.580;2024-01-30T08:14:27;10.70;99.90
75262;DHT22;63859;51.064;4.580;2024-01-30T08:19:19;10.80;99.90
75262;DHT22;63859;51.064;4.580;2024-01-30T08:24:10;10.90;99.90
75262;DHT22;63859;51.064;4.580;2024-01-30T08:26:36;10.90;99.90
75262;DHT22;63859;51.064;4.580;2024-01-30T08:29:02;11.00;99.90
75262;DHT22;63859;51.064;4.580;2024-01-30T08:31:28;11.10;99.90
75262;DHT22;63859;51.064;4.580;2024-01-30T08:33:53;11.00;99.90
75262;DHT22;63859;51.064;4.580;2024-01-30T08:36:20;11.00;99.90
75262;DHT22;63859;51.064;4.580;2024-01-30T08:41:11;11.00;99.90
75262;DHT22;63859;51.064;4.580;2024-01-30T08:43:37;11.00;99.90
75262;DHT22;63859;51.064;4.580;2024-01-30T08:46:03;11.00;99.90
75262;DHT22;63859;51.064;4.580;2024-01-30T08:48:29;11.00;99.90
75262;DHT22;63859;51.064;4.580;2024-01-30T08:50:54;11.00;99.90
75262;DHT22;63859;51.064;4.580;2024-01-30T08:55:46;11.10;99.90
75262;DHT22;63859;51.064;4.580;2024-01-30T08:58:12;11.10;99.90
75262;DHT22;63859;51.064;4.580;2024-01-30T09:00:39;11.10;99.90
75262;DHT22;63859;51.064;4.580;2024-01-30T09:03:05;11.20;99.90
75262;DHT22;63859;51.064;4.580;2024-01-30T09:07:56;11.20;99.90
75262;DHT22;63859;51.064;4.580;2024-01-30T09:10:22;11.20;99.90
75262;DHT22;63859;51.064;4.580;2024-01-30T09:12:48;11.20;99.90
75262;DHT22;63859;51.064;4.580;2024-01-30T09:15:14;11.20;99.90
75262;DHT22;63859;51.064;4.580;2024-01-30T09:17:40;11.20;99.90
75262;DHT22;63859;51.064;4.580;2024-01-30T09:22:32;11.20;99.90
75262;DHT22;63859;51.064;4.580;2024-01-30T09:24:58;11.30;99.90
75262;DHT22;63859;51.064;4.580;2024-01-30T09:27:24;11.30;99.90
75262;DHT22;63859;51.064;4.580;2024-01-30T09:29:49;11.30;99.90
75262;DHT22;63859;51.064;4.580;2024-01-30T09:32:15;11.30;99.90
75262;DHT22;63859;51.064;4.580;2024-01-30T09:34:41;11.30;99.90
75262;DHT22;63859;51.064;4.580;2024-01-30T09:37:07;11.40;99.90
75262;DHT22;63859;51.064;4.580;2024-01-30T09:39:33;11.40;99.90
75262;DHT22;63859;51.064;4.580;2024-01-30T09:42:25;11.40;99.90
75262;DHT22;63859;51.064;4.580;2024-01-30T09:44:53;11.40;99.90
75262;DHT22;63859;51.064;4.580;2024-01-30T09:47:19;11.40;99.90
75262;DHT22;63859;51.064;4.580;2024-01-30T09:49:45;11.50;99.90
75262;DHT22;63859;51.064;4.580;2024-01-30T09:52:11;11.50;99.90
75262;DHT22;63859;51.064;4.580;2024-01-30T09:54:38;11.50;99.90
75262;DHT22;63859;51.064;4.580;2024-01-30T09:57:04;11.50;99.90
75262;DHT22;63859;51.064;4.580;2024-01-30T09:59:30;11.50;99.90
75262;DHT22;63859;51.064;4.580;2024-01-30T10:01:57;11.50;99.90
75262;DHT22;63859;51.064;4.580;2024-01-30T10:04:23;11.40;99.90
75262;DHT22;63859;51.064;4.580;2024-01-30T10:06:48;11.50;99.90
75262;DHT22;63859;51.064;4.580;2024-01-30T10:09:14;11.50;99.90
75262;DHT22;63859;51.064;4.580;2024-01-30T10:14:06;11.50;99.90
75262;DHT22;63859;51.064;4.580;2024-01-30T10:16:34;11.50;99.90
75262;DHT22;63859;51.064;4.580;2024-01-30T10:21:26;11.60;99.90
75262;DHT22;63859;51.064;4.580;2024-01-30T10:23:52;11.50;99.90
75262;DHT22;63859;51.064;4.580;2024-01-30T10:26:18;11.60;99.90
75262;DHT22;63859;51.064;4.580;2024-01-30T10:28:44;11.50;99.90
75262;DHT22;63859;51.064;4.580;2024-01-30T10:33:35;11.60;99.90
75262;DHT22;63859;51.064;4.580;2024-01-30T10:41:00;11.50;99.90
75262;DHT22;63859;51.064;4.580;2024-01-30T10:43:31;11.50;99.90
75262;DHT22;63859;51.064;4.580;2024-01-30T10:48:57;11.50;99.90
75262;DHT22;63859;51.064;4.580;2024-01-30T10:53:53;11.50;99.90
75262;DHT22;63859;51.064;4.580;2024-01-30T11:01:22;11.50;99.90
75262;DHT22;63859;51.064;4.580;2024-01-30T11:03:52;11.50;99.90
75262;DHT22;63859;51.064;4.580;2024-01-30T11:06:18;11.50;99.90
75262;DHT22;63859;51.064;4.580;2024-01-30T11:08:47;11.50;99.90
75262;DHT22;63859;51.064;4.580;2024-01-30T11:11:25;11.50;99.90
75262;DHT22;63859;51.064;4.580;2024-01-30T11:13:50;11.50;99.90
75262;DHT22;63859;51.064;4.580;2024-01-30T11:16:17;11.40;99.90
75262;DHT22;63859;51.064;4.580;2024-01-30T11:18:42;11.40;99.90
75262;DHT22;63859;51.064;4.580;2024-01-30T11:26:01;11.30;99.90
75262;DHT22;63859;51.064;4.580;2024-01-30T11:28:35;11.30;99.90
75262;DHT22;63859;51.064;4.580;2024-01-30T11:31:04;11.30;99.90
75262;DHT22;63859;51.064;4.580;2024-01-30T11:33:30;11.20;99.90
75262;DHT22;63859;51.064;4.580;2024-01-30T11:36:00;11.20;99.90
75262;DHT22;63859;51.064;4.580;2024-01-30T11:40:54;11.40;99.90
75262;DHT22;63859;51.064;4.580;2024-01-30T11:43:23;11.50;99.90
75262;DHT22;63859;51.064;4.580;2024-01-30T11:45:50;11.60;99.90
75262;DHT22;63859;51.064;4.580;2024-01-30T11:50:42;11.70;99.90
75262;DHT22;63859;51.064;4.580;2024-01-30T11:53:10;11.80;99.90
75262;DHT22;63859;51.064;4.580;2024-01-30T11:55:35;12.00;99.90
75262;DHT22;63859;51.064;4.580;2024-01-30T12:00:29;11.80;99.90
75262;DHT22;63859;51.064;4.580;2024-01-30T12:05:23;11.60;99.90
75262;DHT22;63859;51.064;4.580;2024-01-30T12:07:49;11.40;99.90
75262;DHT22;63859;51.064;4.580;2024-01-30T12:12:51;11.30;99.90
75262;DHT22;63859;51.064;4.580;2024-01-30T12:17:44;11.30;99.90
75262;DHT22;63859;51.064;4.580;2024-01-30T12:20:14;11.30;99.90
75262;DHT22;63859;51.064;4.580;2024-01-30T12:27:39;12.10;99.90
75262;DHT22;63859;51.064;4.580;2024-01-30T12:30:09;12.10;99.90
75262;DHT22;63859;51.064;4.580;2024-01-30T12:32:36;12.50;99.90
75262;DHT22;63859;51.064;4.580;2024-01-30T12:35:02;12.90;99.90
75262;DHT22;63859;51.064;4.580;2024-01-30T12:37:30;13.00;99.90
75262;DHT22;63859;51.064;4.580;2024-01-30T12:39:57;13.00;99.90
75262;DHT22;63859;51.064;4.580;2024-01-30T12:42:22;12.50;99.90
75262;DHT22;63859;51.064;4.580;2024-01-30T12:44:49;12.10;99.90
75262;DHT22;63859;51.064;4.580;2024-01-30T12:47:15;11.90;99.90
75262;DHT22;63859;51.064;4.580;2024-01-30T12:52:11;11.80;99.90
75262;DHT22;63859;51.064;4.580;2024-01-30T12:54:37;11.60;99.90
75262;DHT22;63859;51.064;4.580;2024-01-30T12:57:04;11.50;99.90
75262;DHT22;63859;51.064;4.580;2024-01-30T12:59:30;11.40;99.90
75262;DHT22;63859;51.064;4.580;2024-01-30T13:01:56;11.30;99.90
75262;DHT22;63859;51.064;4.580;2024-01-30T13:06:48;11.20;99.90
75262;DHT22;63859;51.064;4.580;2024-01-30T13:09:14;11.20;99.90
75262;DHT22;63859;51.064;4.580;2024-01-30T13:11:40;11.30;99.90
75262;DHT22;63859;51.064;4.580;2024-01-30T13:14:05;11.30;99.90
75262;DHT22;63859;51.064;4.580;2024-01-30T13:23:49;11.00;99.90
75262;DHT22;63859;51.064;4.580;2024-01-30T13:36:03;10.80;99.90
75262;DHT22;63859;51.064;4.580;2024-01-30T13:38:28;10.70;99.90
75262;DHT22;63859;51.064;4.580;2024-01-30T13:40:54;10.60;99.90
75262;DHT22;63859;51.064;4.580;2024-01-30T13:43:20;10.50;99.90
75262;DHT22;63859;51.064;4.580;2024-01-30T13:45:45;10.40;99.90
75262;DHT22;63859;51.064;4.580;2024-01-30T13:48:11;10.30;99.90
75262;DHT22;63859;51.064;4.580;2024-01-30T13:50:37;10.30;99.90
75262;DHT22;63859;51.064;4.580;2024-01-30T13:53:03;10.30;99.90
75262;DHT22;63859;51.064;4.580;2024-01-30T13:55:32;10.20;99.90
75262;DHT22;63859;51.064;4.580;2024-01-30T13:57:57;10.10;99.90
75262;DHT22;63859;51.064;4.580;2024-01-30T14:02:51;10.00;99.90
75262;DHT22;63859;51.064;4.580;2024-01-30T14:05:16;9.90;99.90
75262;DHT22;63859;51.064;4.580;2024-01-30T14:07:44;9.90;99.90
75262;DHT22;63859;51.064;4.580;2024-01-30T14:10:10;9.90;99.90
75262;DHT22;63859;51.064;4.580;2024-01-30T14:12:39;9.80;99.90
75262;DHT22;63859;51.064;4.580;2024-01-30T14:15:06;9.80;99.90
75262;DHT22;63859;51.064;4.580;2024-01-30T14:17:32;9.80;99.90
75262;DHT22;63859;51.064;4.580;2024-01-30T14:19:57;9.80;99.90
75262;DHT22;63859;51.064;4.580;2024-01-30T14:24:49;9.80;99.90
75262;DHT22;63859;51.064;4.580;2024-01-30T14:27:14;9.80;99.90
75262;DHT22;63859;51.064;4.580;2024-01-30T14:29:40;9.80;99.90
75262;DHT22;63859;51.064;4.580;2024-01-30T14:32:07;9.80;99.90
75262;DHT22;63859;51.064;4.580;2024-01-30T14:34:33;9.70;99.90
75262;DHT22;63859;51.064;4.580;2024-01-30T14:36:59;9.70;99.90
75262;DHT22;63859;51.064;4.580;2024-01-30T14:39:24;9.70;99.90
75262;DHT22;63859;51.064;4.580;2024-01-30T14:41:50;9.70;99.90
75262;DHT22;63859;51.064;4.580;2024-01-30T14:46:42;9.60;99.90
75262;DHT22;63859;51.064;4.580;2024-01-30T14:49:08;9.60;99.90
75262;DHT22;63859;51.064;4.580;2024-01-30T14:51:35;9.60;99.90
75262;DHT22;63859;51.064;4.580;2024-01-30T14:56:27;9.40;99.90
75262;DHT22;63859;51.064;4.580;2024-01-30T14:58:53;9.50;99.90
75262;DHT22;63859;51.064;4.580;2024-01-30T15:01:19;9.40;99.90
75262;DHT22;63859;51.064;4.580;2024-01-30T15:03:45;9.40;99.90
75262;DHT22;63859;51.064;4.580;2024-01-30T15:08:38;9.40;99.90
75262;DHT22;63859;51.064;4.580;2024-01-30T15:11:04;9.40;99.90
75262;DHT22;63859;51.064;4.580;2024-01-30T15:13:30;9.40;99.90
75262;DHT22;63859;51.064;4.580;2024-01-30T15:15:56;9.40;99.90
75262;DHT22;63859;51.064;4.580;2024-01-30T15:18:22;9.40;99.90
75262;DHT22;63859;51.064;4.580;2024-01-30T15:20:49;9.40;99.90
75262;DHT22;63859;51.064;4.580;2024-01-30T15:25:42;9.40;99.90
75262;DHT22;63859;51.064;4.580;2024-01-30T15:28:07;9.40;99.90
75262;DHT22;63859;51.064;4.580;2024-01-30T15:30:35;9.40;99.90
75262;DHT22;63859;51.064;4.580;2024-01-30T15:33:00;9.40;99.90
75262;DHT22;63859;51.064;4.580;2024-01-30T15:35:27;9.40;99.90
75262;DHT22;63859;51.064;4.580;2024-01-30T15:42:46;9.40;99.90
75262;DHT22;63859;51.064;4.580;2024-01-30T15:47:37;9.30;99.90
75262;DHT22;63859;51.064;4.580;2024-01-30T15:50:04;9.30;99.90
75262;DHT22;63859;51.064;4.580;2024-01-30T15:52:30;9.20;99.90
75262;DHT22;63859;51.064;4.580;2024-01-30T15:54:56;9.20;99.90
75262;DHT22;63859;51.064;4.580;2024-01-30T15:57:21;9.20;99.90
75262;DHT22;63859;51.064;4.580;2024-01-30T16:02:13;9.10;99.90
75262;DHT22;63859;51.064;4.580;2024-01-30T16:04:39;9.10;99.90
75262;DHT22;63859;51.064;4.580;2024-01-30T16:07:05;9.00;99.90
75262;DHT22;63859;51.064;4.580;2024-01-30T16:09:31;9.00;99.90
75262;DHT22;63859;51.064;4.580;2024-01-30T16:11:58;8.90;99.90
75262;DHT22;63859;51.064;4.580;2024-01-30T16:14:23;8.80;99.90
75262;DHT22;63859;51.064;4.580;2024-01-30T16:16:49;8.80;99.90
75262;DHT22;63859;51.064;4.580;2024-01-30T16:29:01;8.40;99.90
75262;DHT22;63859;51.064;4.580;2024-01-30T16:31:27;8.40;99.90
75262;DHT22;63859;51.064;4.580;2024-01-30T16:33:53;8.30;99.90
75262;DHT22;63859;51.064;4.580;2024-01-30T16:36:19;8.30;99.90
75262;DHT22;63859;51.064;4.580;2024-01-30T16:38:44;8.30;99.90
75262;DHT22;63859;51.064;4.580;2024-01-30T16:41:11;8.20;99.90
75262;DHT22;63859;51.064;4.580;2024-01-30T16:46:03;8.20;99.90
75262;DHT22;63859;51.064;4.580;2024-01-30T16:48:30;8.20;99.90
75262;DHT22;63859;51.064;4.580;2024-01-30T16:50:55;8.20;99.90
75262;DHT22;63859;51.064;4.580;2024-01-30T16:53:21;8.20;99.90
75262;DHT22;63859;51.064;4.580;2024-01-30T16:58:13;8.20;99.90
75262;DHT22;63859;51.064;4.580;2024-01-30T17:05:31;8.10;99.90
75262;DHT22;63859;51.064;4.580;2024-01-30T17:10:24;8.10;99.90
75262;DHT22;63859;51.064;4.580;2024-01-30T17:15:16;8.10;99.90
75262;DHT22;63859;51.064;4.580;2024-01-30T17:20:09;8.10;99.90
75262;DHT22;63859;51.064;4.580;2024-01-30T17:22:37;8.10;99.90
75262;DHT22;63859;51.064;4.580;2024-01-30T17:25:04;8.10;99.90
75262;DHT22;63859;51.064;4.580;2024-01-30T17:27:29;8.10;99.90
75262;DHT22;63859;51.064;4.580;2024-01-30T17:29:55;8.10;99.90
75262;DHT22;63859;51.064;4.580;2024-01-30T17:32:21;8.10;99.90
75262;DHT22;63859;51.064;4.580;2024-01-30T17:34:47;8.10;99.90
75262;DHT22;63859;51.064;4.580;2024-01-30T17:37:12;8.10;99.90
75262;DHT22;63859;51.064;4.580;2024-01-30T17:39:38;8.10;99.90
75262;DHT22;63859;51.064;4.580;2024-01-30T17:42:04;8.10;99.90
75262;DHT22;63859;51.064;4.580;2024-01-30T17:44:29;8.10;99.90
75262;DHT22;63859;51.064;4.580;2024-01-30T17:46:55;8.10;99.90
75262;DHT22;63859;51.064;4.580;2024-01-30T17:49:21;8.00;99.90
75262;DHT22;63859;51.064;4.580;2024-01-30T17:51:46;8.00;99.90
75262;DHT22;63859;51.064;4.580;2024-01-30T17:54:13;8.00;99.90
75262;DHT22;63859;51.064;4.580;2024-01-30T17:56:38;8.10;99.90
75262;DHT22;63859;51.064;4.580;2024-01-30T18:01:30;8.00;99.90
75262;DHT22;63859;51.064;4.580;2024-01-30T18:06:23;8.00;99.90
75262;DHT22;63859;51.064;4.580;2024-01-30T18:08:49;8.00;99.90
75262;DHT22;63859;51.064;4.580;2024-01-30T18:11:15;8.00;99.90
75262;DHT22;63859;51.064;4.580;2024-01-30T18:13:41;8.00;99.90
75262;DHT22;63859;51.064;4.580;2024-01-30T18:21:00;8.00;99.90
75262;DHT22;63859;51.064;4.580;2024-01-30T18:23:26;8.00;99.90
75262;DHT22;63859;51.064;4.580;2024-01-30T18:25:51;8.00;99.90
75262;DHT22;63859;51.064;4.580;2024-01-30T18:28:25;7.90;99.90
75262;DHT22;63859;51.064;4.580;2024-01-30T18:30:51;7.90;99.90
75262;DHT22;63859;51.064;4.580;2024-01-30T18:33:17;7.90;99.90
75262;DHT22;63859;51.064;4.580;2024-01-30T18:38:09;7.90;99.90
75262;DHT22;63859;51.064;4.580;2024-01-30T18:40:35;7.90;99.90
75262;DHT22;63859;51.064;4.580;2024-01-30T18:43:01;7.90;99.90
75262;DHT22;63859;51.064;4.580;2024-01-30T18:45:30;7.90;99.90
75262;DHT22;63859;51.064;4.580;2024-01-30T18:47:55;7.90;99.90
75262;DHT22;63859;51.064;4.580;2024-01-30T18:50:21;7.90;99.90
75262;DHT22;63859;51.064;4.580;2024-01-30T18:52:47;7.90;99.90
75262;DHT22;63859;51.064;4.580;2024-01-30T18:55:12;7.80;99.90
75262;DHT22;63859;51.064;4.580;2024-01-30T18:57:38;7.80;99.90
75262;DHT22;63859;51.064;4.580;2024-01-30T19:00:04;7.80;99.90
75262;DHT22;63859;51.064;4.580;2024-01-30T19:02:30;7.80;99.90
75262;DHT22;63859;51.064;4.580;2024-01-30T19:07:24;7.80;99.90
75262;DHT22;63859;51.064;4.580;2024-01-30T19:12:17;7.70;99.90
75262;DHT22;63859;51.064;4.580;2024-01-30T19:14:43;7.70;99.90
75262;DHT22;63859;51.064;4.580;2024-01-30T19:17:09;7.70;99.90
75262;DHT22;63859;51.064;4.580;2024-01-30T19:19:34;7.70;99.90
75262;DHT22;63859;51.064;4.580;2024-01-30T19:22:00;7.60;99.90
75262;DHT22;63859;51.064;4.580;2024-01-30T19:24:26;7.60;99.90
75262;DHT22;63859;51.064;4.580;2024-01-30T19:26:51;7.60;99.90
75262;DHT22;63859;51.064;4.580;2024-01-30T19:31:47;7.60;99.90
75262;DHT22;63859;51.064;4.580;2024-01-30T19:34:13;7.60;99.90
75262;DHT22;63859;51.064;4.580;2024-01-30T19:36:39;7.60;99.90
75262;DHT22;63859;51.064;4.580;2024-01-30T19:39:05;7.60;99.90
75262;DHT22;63859;51.064;4.580;2024-01-30T19:44:04;7.50;99.90
75262;DHT22;63859;51.064;4.580;2024-01-30T19:46:30;7.50;99.90
75262;DHT22;63859;51.064;4.580;2024-01-30T19:48:56;7.50;99.90
75262;DHT22;63859;51.064;4.580;2024-01-30T19:51:21;7.50;99.90
75262;DHT22;63859;51.064;4.580;2024-01-30T19:53:47;7.50;99.90
75262;DHT22;63859;51.064;4.580;2024-01-30T19:58:40;7.50;99.90
75262;DHT22;63859;51.064;4.580;2024-01-30T20:01:05;7.40;99.90
75262;DHT22;63859;51.064;4.580;2024-01-30T20:03:31;7.50;99.90
75262;DHT22;63859;51.064;4.580;2024-01-30T20:05:58;7.50;99.90
75262;DHT22;63859;51.064;4.580;2024-01-30T20:08:24;7.50;99.90
75262;DHT22;63859;51.064;4.580;2024-01-30T20:10:50;7.40;99.90
75262;DHT22;63859;51.064;4.580;2024-01-30T20:13:16;7.50;99.90
75262;DHT22;63859;51.064;4.580;2024-01-30T20:15:42;7.50;99.90
75262;DHT22;63859;51.064;4.580;2024-01-30T20:18:08;7.50;99.90
75262;DHT22;63859;51.064;4.580;2024-01-30T20:20:34;7.50;99.90
75262;DHT22;63859;51.064;4.580;2024-01-30T20:23:01;7.50;99.90
75262;DHT22;63859;51.064;4.580;2024-01-30T20:30:20;7.40;99.90
75262;DHT22;63859;51.064;4.580;2024-01-30T20:32:47;7.40;99.90
75262;DHT22;63859;51.064;4.580;2024-01-30T20:35:13;7.40;99.90
75262;DHT22;63859;51.064;4.580;2024-01-30T20:42:32;7.40;99.90
75262;DHT22;63859;51.064;4.580;2024-01-30T20:44:57;7.40;99.90
75262;DHT22;63859;51.064;4.580;2024-01-30T20:47:23;7.40;99.90
75262;DHT22;63859;51.064;4.580;2024-01-30T20:49:50;7.30;99.90
75262;DHT22;63859;51.064;4.580;2024-01-30T20:52:16;7.40;99.90
75262;DHT22;63859;51.064;4.580;2024-01-30T20:57:07;7.30;99.90
75262;DHT22;63859;51.064;4.580;2024-01-30T20:59:33;7.30;99.90
75262;DHT22;63859;51.064;4.580;2024-01-30T21:01:58;7.30;99.90
75262;DHT22;63859;51.064;4.580;2024-01-30T21:04:24;7.30;99.90
75262;DHT22;63859;51.064;4.580;2024-01-30T21:11:42;7.30;99.90
75262;DHT22;63859;51.064;4.580;2024-01-30T21:14:08;7.30;99.90
75262;DHT22;63859;51.064;4.580;2024-01-30T21:16:33;7.30;99.90
75262;DHT22;63859;51.064;4.580;2024-01-30T21:18:59;7.30;99.90
75262;DHT22;63859;51.064;4.580;2024-01-30T21:23:51;7.30;99.90